Amsterdam, New York
Current Conditions -  °F | °C
As of 10:35 AM on Friday 24 Oct 2014 (Local Time) from KNY0 Reporting Station
Overcast Overcast  
Wind Chill: 39°   Ceiling: 3200
Heat Index: 45°   Visibility: 10mi
Dew Point: 42°   Wind: 10mph
Humidity: 90%   Direction: 270°W
Pressure: 29.86"   Gusts: NA
Location:  42.94°N, 74.19°W
Report Text: KNY0 241435Z AUTO 27009KT 10SM SCT025 BKN032 OVC039 07/06 A2986 RMK AO2 T00700055
Loading
Personal Weather Stations






























Interactive Weather Map
Tropical Storm Tracking
New forecast layout! Learn more

10-Day Weather Forecast

Advertisements
Track Severe Weather on mobile